Majestic — ZCPX7 — position and weather

sailwx.info

Track history (hours):
 
Tides and Currents Weather Stations Pressure Air Temp Water Temp Dewpoint Dewpoint Depression Visibility Wind Speed Wind Dir Waves Ship Positions

Majestic

Last reported at 2017-Jan-19 13:12 UTC. Time now 2017-Jan-22 05:58 UTC.
Position N 17°60' W 063°02'.

Length 61 m; draft 3.2 m.

Type: Pleasure craft. MMSI: 319654000.

Date/timePositionNaut miles runAvg speedWind from/ knotsBaromVisibWave heightAir tempDewpointWater temp
2017-Jan-19 13:12N 17°60' W 063°02'4 6.1
2017-Jan-19 12:32N 18°02' W 063°06'0 0.1
2017-Jan-19 11:26N 18°02' W 063°05'0 0.0
2017-Jan-19 10:26N 18°02' W 063°05'0 0.0
2017-Jan-19 09:31N 18°02' W 063°05'0 0.0
2017-Jan-19 08:32N 18°02' W 063°05'0 0.0
2017-Jan-19 07:31N 18°02' W 063°05'0 0.0
2017-Jan-19 06:32N 18°02' W 063°05'0 0.0
2017-Jan-19 05:31N 18°02' W 063°05'0 0.0
2017-Jan-19 04:31N 18°02' W 063°05'0 0.0
2017-Jan-19 03:22N 18°02' W 063°05'0 0.0
2017-Jan-19 02:23N 18°02' W 063°05'0 0.0
2017-Jan-19 01:25N 18°02' W 063°05'0 0.0
2017-Jan-19 00:25N 18°02' W 063°05'0 0.0
2017-Jan-18 23:28N 18°02' W 063°05'0 0.0
2017-Jan-18 22:28N 18°02' W 063°05'0 0.0
2017-Jan-18 21:28N 18°02' W 063°05'0 0.0
2017-Jan-18 20:31N 18°02' W 063°05'0 0.0
2017-Jan-18 19:22N 18°02' W 063°05'2 2.0
2017-Jan-18 18:33N 18°01' W 063°07'1212.4
2017-Jan-18 17:33N 18°03' W 063°20'7712.8
2017-Jan-18 11:31N 18°15' W 064°40'1313.3
2017-Jan-18 10:34N 18°17' W 064°53'  
2017-Jan-16 00:30N 18°17' W 064°51'1312.8
2017-Jan-15 23:31N 18°20' W 064°38'2 0.4
2017-Jan-15 17:33N 18°21' W 064°35'2 0.3
2017-Jan-15 10:24N 18°19' W 064°37'0 0.0
2017-Jan-15 08:30N 18°19' W 064°37'0 0.0
2017-Jan-15 07:30N 18°19' W 064°37'0 0.0
2017-Jan-15 06:30N 18°19' W 064°37'0 0.0
2017-Jan-14 23:30N 18°19' W 064°37'3 0.2
2017-Jan-14 10:27N 18°21' W 064°35'0 0.0
2017-Jan-14 09:21N 18°21' W 064°35'0 0.0
2017-Jan-14 08:33N 18°21' W 064°35'0 0.0
2017-Jan-14 07:33N 18°21' W 064°35'0 0.1
2017-Jan-14 06:33N 18°21' W 064°35'0 0.0
2017-Jan-14 05:15N 18°21' W 064°35'0 0.0
2017-Jan-14 04:33N 18°21' W 064°35'0 0.0
2017-Jan-14 03:15N 18°21' W 064°35'0 0.0
2017-Jan-13 23:33N 18°21' W 064°35'0 0.0
2017-Jan-13 22:33N 18°21' W 064°35'0 0.0
2017-Jan-13 21:33N 18°21' W 064°35'0 0.0
2017-Jan-13 20:33N 18°21' W 064°35'0 0.0
2017-Jan-13 19:27N 18°21' W 064°35'0 0.0
2017-Jan-13 18:33N 18°21' W 064°35'1 1.3
2017-Jan-13 17:34N 18°20' W 064°36'2 0.1
2017-Jan-13 00:10N 18°22' W 064°35'610.5
2017-Jan-12 23:33N 18°22' W 064°41'3 3.4
2017-Jan-12 22:33N 18°22' W 064°45'0 0.0
2017-Jan-12 21:28N 18°22' W 064°45'0 0.0
2017-Jan-12 20:33N 18°22' W 064°45'0 0.0
2017-Jan-12 19:34N 18°22' W 064°45'0 0.0
2017-Jan-12 18:34N 18°22' W 064°45'  
Track history (hours):
 
Tides and Currents Weather Stations Pressure Air Temp Water Temp Dewpoint Dewpoint Depression Visibility Wind Speed Wind Dir Waves Ship Positions

Majestic

Last reported at 2017-Jan-19 13:12 UTC. Time now 2017-Jan-22 05:58 UTC.
Position N 17°60' W 063°02'.

Length 61 m; draft 3.2 m.

Type: Pleasure craft. MMSI: 319654000.

Date/timePositionNaut miles runAvg speedWind from/ knotsBaromVisibWave heightAir tempDewpointWater temp
2017-Jan-19 13:12N 17°60' W 063°02'4 6.1
2017-Jan-19 12:32N 18°02' W 063°06'0 0.1
2017-Jan-19 11:26N 18°02' W 063°05'0 0.0
2017-Jan-19 10:26N 18°02' W 063°05'0 0.0
2017-Jan-19 09:31N 18°02' W 063°05'0 0.0
2017-Jan-19 08:32N 18°02' W 063°05'0 0.0
2017-Jan-19 07:31N 18°02' W 063°05'0 0.0
2017-Jan-19 06:32N 18°02' W 063°05'0 0.0
2017-Jan-19 05:31N 18°02' W 063°05'0 0.0
2017-Jan-19 04:31N 18°02' W 063°05'0 0.0
2017-Jan-19 03:22N 18°02' W 063°05'0 0.0
2017-Jan-19 02:23N 18°02' W 063°05'0 0.0
2017-Jan-19 01:25N 18°02' W 063°05'0 0.0
2017-Jan-19 00:25N 18°02' W 063°05'0 0.0
2017-Jan-18 23:28N 18°02' W 063°05'0 0.0
2017-Jan-18 22:28N 18°02' W 063°05'0 0.0
2017-Jan-18 21:28N 18°02' W 063°05'0 0.0
2017-Jan-18 20:31N 18°02' W 063°05'0 0.0
2017-Jan-18 19:22N 18°02' W 063°05'2 2.0
2017-Jan-18 18:33N 18°01' W 063°07'1212.4
2017-Jan-18 17:33N 18°03' W 063°20'7712.8
2017-Jan-18 11:31N 18°15' W 064°40'1313.3
2017-Jan-18 10:34N 18°17' W 064°53'  
2017-Jan-16 00:30N 18°17' W 064°51'1312.8
2017-Jan-15 23:31N 18°20' W 064°38'2 0.4
2017-Jan-15 17:33N 18°21' W 064°35'2 0.3
2017-Jan-15 10:24N 18°19' W 064°37'0 0.0
2017-Jan-15 08:30N 18°19' W 064°37'0 0.0
2017-Jan-15 07:30N 18°19' W 064°37'0 0.0
2017-Jan-15 06:30N 18°19' W 064°37'0 0.0
2017-Jan-14 23:30N 18°19' W 064°37'3 0.2
2017-Jan-14 10:27N 18°21' W 064°35'0 0.0
2017-Jan-14 09:21N 18°21' W 064°35'0 0.0
2017-Jan-14 08:33N 18°21' W 064°35'0 0.0
2017-Jan-14 07:33N 18°21' W 064°35'0 0.1
2017-Jan-14 06:33N 18°21' W 064°35'0 0.0
2017-Jan-14 05:15N 18°21' W 064°35'0 0.0
2017-Jan-14 04:33N 18°21' W 064°35'0 0.0
2017-Jan-14 03:15N 18°21' W 064°35'0 0.0
2017-Jan-13 23:33N 18°21' W 064°35'0 0.0
2017-Jan-13 22:33N 18°21' W 064°35'0 0.0
2017-Jan-13 21:33N 18°21' W 064°35'0 0.0
2017-Jan-13 20:33N 18°21' W 064°35'0 0.0
2017-Jan-13 19:27N 18°21' W 064°35'0 0.0
2017-Jan-13 18:33N 18°21' W 064°35'1 1.3
2017-Jan-13 17:34N 18°20' W 064°36'2 0.1
2017-Jan-13 00:10N 18°22' W 064°35'610.5
2017-Jan-12 23:33N 18°22' W 064°41'3 3.4
2017-Jan-12 22:33N 18°22' W 064°45'0 0.0
2017-Jan-12 21:28N 18°22' W 064°45'0 0.0
2017-Jan-12 20:33N 18°22' W 064°45'0 0.0
2017-Jan-12 19:34N 18°22' W 064°45'0 0.0
2017-Jan-12 18:34N 18°22' W 064°45'  

Dump ship's entire track history